sensor_id;sensor_type;location;lat;lon;timestamp;pressure;altitude;pressure_sealevel;temperature;humidity
76460;BME280;65299;46.084;18.762;2023-03-01T00:00:36;101645.16;;;4.57;74.78
76460;BME280;65299;46.084;18.762;2023-03-01T00:03:37;101651.53;;;3.84;77.86
76460;BME280;65299;46.084;18.762;2023-03-01T00:06:38;101645.53;;;4.33;76.16
76460;BME280;65299;46.084;18.762;2023-03-01T00:09:38;101645.97;;;4.36;76.69
76460;BME280;65299;46.084;18.762;2023-03-01T00:12:40;101649.97;;;4.53;75.81
76460;BME280;65299;46.084;18.762;2023-03-01T00:15:41;101656.50;;;3.79;78.66
76460;BME280;65299;46.084;18.762;2023-03-01T00:18:41;101644.00;;;4.17;77.68
76460;BME280;65299;46.084;18.762;2023-03-01T00:21:42;101652.59;;;4.32;77.02
76460;BME280;65299;46.084;18.762;2023-03-01T00:24:42;101650.13;;;4.03;77.48
76460;BME280;65299;46.084;18.762;2023-03-01T00:27:43;101647.00;;;4.35;76.70
76460;BME280;65299;46.084;18.762;2023-03-01T00:30:43;101646.31;;;4.48;76.17
76460;BME280;65299;46.084;18.762;2023-03-01T00:33:44;101647.97;;;4.55;75.75
76460;BME280;65299;46.084;18.762;2023-03-01T00:36:45;101643.47;;;4.28;76.24
76460;BME280;65299;46.084;18.762;2023-03-01T00:39:45;101640.47;;;4.10;77.67
76460;BME280;65299;46.084;18.762;2023-03-01T00:42:45;101640.97;;;4.20;77.12
76460;BME280;65299;46.084;18.762;2023-03-01T00:45:46;101645.50;;;3.69;78.97
76460;BME280;65299;46.084;18.762;2023-03-01T00:48:46;101635.22;;;3.38;80.64
76460;BME280;65299;46.084;18.762;2023-03-01T00:51:47;101626.34;;;3.54;80.19
76460;BME280;65299;46.084;18.762;2023-03-01T00:54:47;101616.59;;;4.05;78.65
76460;BME280;65299;46.084;18.762;2023-03-01T00:57:48;101614.59;;;4.07;78.65
76460;BME280;65299;46.084;18.762;2023-03-01T01:00:49;101606.88;;;4.27;77.67
76460;BME280;65299;46.084;18.762;2023-03-01T01:03:52;101603.38;;;4.41;77.37
76460;BME280;65299;46.084;18.762;2023-03-01T01:06:53;101601.56;;;4.41;76.99
76460;BME280;65299;46.084;18.762;2023-03-01T01:09:54;101599.06;;;4.12;77.49
76460;BME280;65299;46.084;18.762;2023-03-01T01:12:54;101597.81;;;4.08;77.86
76460;BME280;65299;46.084;18.762;2023-03-01T01:16:00;101602.66;;;4.53;77.06
76460;BME280;65299;46.084;18.762;2023-03-01T01:19:01;101591.69;;;4.22;77.69
76460;BME280;65299;46.084;18.762;2023-03-01T01:22:01;101597.13;;;4.20;77.48
76460;BME280;65299;46.084;18.762;2023-03-01T01:25:02;101587.31;;;4.29;77.54
76460;BME280;65299;46.084;18.762;2023-03-01T01:28:02;101586.81;;;3.98;78.13
76460;BME280;65299;46.084;18.762;2023-03-01T01:31:04;101580.81;;;4.04;78.74
76460;BME280;65299;46.084;18.762;2023-03-01T01:34:06;101576.94;;;3.79;79.65
76460;BME280;65299;46.084;18.762;2023-03-01T01:37:06;101564.97;;;3.91;79.47
76460;BME280;65299;46.084;18.762;2023-03-01T01:40:09;101559.25;;;3.87;78.98
76460;BME280;65299;46.084;18.762;2023-03-01T01:43:37;101558.88;;;3.90;79.54
76460;BME280;65299;46.084;18.762;2023-03-01T01:46:40;101566.09;;;4.09;78.62
76460;BME280;65299;46.084;18.762;2023-03-01T01:49:51;101569.63;;;4.44;77.44
76460;BME280;65299;46.084;18.762;2023-03-01T01:52:53;101572.78;;;4.61;76.76
76460;BME280;65299;46.084;18.762;2023-03-01T01:55:56;101568.84;;;4.22;77.34
76460;BME280;65299;46.084;18.762;2023-03-01T01:58:58;101575.47;;;4.40;77.62
76460;BME280;65299;46.084;18.762;2023-03-01T02:02:03;101562.13;;;4.41;76.81
76460;BME280;65299;46.084;18.762;2023-03-01T02:08:28;101566.00;;;4.45;76.92
76460;BME280;65299;46.084;18.762;2023-03-01T02:11:31;101557.97;;;4.53;76.85
76460;BME280;65299;46.084;18.762;2023-03-01T02:14:32;101559.44;;;4.35;77.50
76460;BME280;65299;46.084;18.762;2023-03-01T02:17:33;101556.66;;;4.70;76.60
76460;BME280;65299;46.084;18.762;2023-03-01T02:21:30;101559.63;;;4.88;75.83
76460;BME280;65299;46.084;18.762;2023-03-01T02:24:34;101546.84;;;4.85;75.56
76460;BME280;65299;46.084;18.762;2023-03-01T02:27:56;101552.38;;;4.35;77.01
76460;BME280;65299;46.084;18.762;2023-03-01T02:30:58;101545.44;;;4.00;79.20
76460;BME280;65299;46.084;18.762;2023-03-01T02:34:21;101542.72;;;4.42;77.97
76460;BME280;65299;46.084;18.762;2023-03-01T02:37:24;101544.34;;;4.15;78.48
76460;BME280;65299;46.084;18.762;2023-03-01T02:40:28;101540.16;;;4.21;78.60
76460;BME280;65299;46.084;18.762;2023-03-01T02:43:31;101540.00;;;4.29;78.35
76460;BME280;65299;46.084;18.762;2023-03-01T02:46:33;101537.16;;;4.52;78.09
76460;BME280;65299;46.084;18.762;2023-03-01T02:49:35;101535.84;;;4.41;77.60
76460;BME280;65299;46.084;18.762;2023-03-01T02:55:45;101536.31;;;4.51;77.30
76460;BME280;65299;46.084;18.762;2023-03-01T02:58:45;101540.91;;;4.43;77.94
76460;BME280;65299;46.084;18.762;2023-03-01T03:01:48;101531.38;;;4.35;78.43
76460;BME280;65299;46.084;18.762;2023-03-01T03:04:48;101528.16;;;4.40;78.51
76460;BME280;65299;46.084;18.762;2023-03-01T03:07:49;101533.84;;;4.43;78.05
76460;BME280;65299;46.084;18.762;2023-03-01T03:10:50;101524.94;;;4.38;77.99
76460;BME280;65299;46.084;18.762;2023-03-01T03:13:50;101523.59;;;4.55;77.62
76460;BME280;65299;46.084;18.762;2023-03-01T03:16:52;101522.16;;;4.52;77.75
76460;BME280;65299;46.084;18.762;2023-03-01T03:19:52;101515.34;;;4.02;78.93
76460;BME280;65299;46.084;18.762;2023-03-01T03:22:54;101514.06;;;4.19;78.95
76460;BME280;65299;46.084;18.762;2023-03-01T03:25:55;101511.63;;;4.46;78.43
76460;BME280;65299;46.084;18.762;2023-03-01T03:28:55;101513.91;;;4.28;78.88
76460;BME280;65299;46.084;18.762;2023-03-01T03:31:56;101511.81;;;3.89;80.32
76460;BME280;65299;46.084;18.762;2023-03-01T03:34:56;101503.94;;;3.89;80.29
76460;BME280;65299;46.084;18.762;2023-03-01T03:37:59;101503.75;;;3.90;80.97
76460;BME280;65299;46.084;18.762;2023-03-01T03:41:06;101489.38;;;3.65;80.92
76460;BME280;65299;46.084;18.762;2023-03-01T03:44:07;101497.19;;;4.07;80.00
76460;BME280;65299;46.084;18.762;2023-03-01T03:47:07;101497.16;;;4.01;80.32
76460;BME280;65299;46.084;18.762;2023-03-01T03:50:09;101499.19;;;3.78;81.15
76460;BME280;65299;46.084;18.762;2023-03-01T03:53:11;101504.66;;;3.83;80.40
76460;BME280;65299;46.084;18.762;2023-03-01T03:56:12;101502.03;;;3.83;80.22
76460;BME280;65299;46.084;18.762;2023-03-01T03:59:12;101508.25;;;3.75;81.17
76460;BME280;65299;46.084;18.762;2023-03-01T04:02:13;101507.13;;;3.84;80.52
76460;BME280;65299;46.084;18.762;2023-03-01T04:05:23;101499.44;;;3.62;81.31
76460;BME280;65299;46.084;18.762;2023-03-01T04:08:23;101498.75;;;3.53;82.09
76460;BME280;65299;46.084;18.762;2023-03-01T04:11:24;101494.16;;;3.83;81.66
76460;BME280;65299;46.084;18.762;2023-03-01T04:14:27;101495.88;;;3.90;80.80
76460;BME280;65299;46.084;18.762;2023-03-01T04:17:27;101486.13;;;3.84;81.08
76460;BME280;65299;46.084;18.762;2023-03-01T04:20:30;101489.91;;;4.03;80.30
76460;BME280;65299;46.084;18.762;2023-03-01T04:23:30;101491.75;;;3.60;80.83
76460;BME280;65299;46.084;18.762;2023-03-01T04:26:31;101487.38;;;3.67;81.29
76460;BME280;65299;46.084;18.762;2023-03-01T04:29:31;101488.25;;;3.53;81.95
76460;BME280;65299;46.084;18.762;2023-03-01T04:32:32;101481.22;;;3.81;80.88
76460;BME280;65299;46.084;18.762;2023-03-01T04:35:32;101485.38;;;3.69;81.40
76460;BME280;65299;46.084;18.762;2023-03-01T04:38:36;101478.50;;;3.68;81.42
76460;BME280;65299;46.084;18.762;2023-03-01T04:41:38;101486.19;;;3.70;81.33
76460;BME280;65299;46.084;18.762;2023-03-01T04:44:44;101478.13;;;3.71;80.90
76460;BME280;65299;46.084;18.762;2023-03-01T04:47:45;101472.38;;;3.61;81.13
76460;BME280;65299;46.084;18.762;2023-03-01T04:50:46;101476.50;;;3.70;81.06
76460;BME280;65299;46.084;18.762;2023-03-01T04:53:47;101470.03;;;3.73;81.38
76460;BME280;65299;46.084;18.762;2023-03-01T04:56:47;101475.97;;;3.81;81.12
76460;BME280;65299;46.084;18.762;2023-03-01T04:59:47;101474.78;;;3.84;80.86
76460;BME280;65299;46.084;18.762;2023-03-01T05:02:56;101478.94;;;3.99;80.00
76460;BME280;65299;46.084;18.762;2023-03-01T05:05:58;101474.78;;;3.84;80.35
76460;BME280;65299;46.084;18.762;2023-03-01T05:08:59;101475.03;;;4.16;79.62
76460;BME280;65299;46.084;18.762;2023-03-01T05:12:00;101472.84;;;4.20;79.34
76460;BME280;65299;46.084;18.762;2023-03-01T05:15:00;101472.44;;;3.89;80.72
76460;BME280;65299;46.084;18.762;2023-03-01T05:18:01;101474.16;;;4.03;79.70
76460;BME280;65299;46.084;18.762;2023-03-01T05:21:09;101478.31;;;3.70;80.55
76460;BME280;65299;46.084;18.762;2023-03-01T05:24:10;101481.78;;;3.98;80.06
76460;BME280;65299;46.084;18.762;2023-03-01T05:27:11;101478.84;;;4.14;79.29
76460;BME280;65299;46.084;18.762;2023-03-01T05:30:12;101479.44;;;4.09;79.20
76460;BME280;65299;46.084;18.762;2023-03-01T05:33:15;101487.38;;;4.50;78.26
76460;BME280;65299;46.084;18.762;2023-03-01T05:36:16;101484.94;;;4.14;78.62
76460;BME280;65299;46.084;18.762;2023-03-01T05:39:23;101486.91;;;4.34;78.72
76460;BME280;65299;46.084;18.762;2023-03-01T05:42:24;101488.59;;;4.20;79.47
76460;BME280;65299;46.084;18.762;2023-03-01T05:45:26;101487.94;;;4.11;79.00
76460;BME280;65299;46.084;18.762;2023-03-01T05:48:26;101493.38;;;4.10;79.11
76460;BME280;65299;46.084;18.762;2023-03-01T05:51:27;101491.47;;;4.25;78.32
76460;BME280;65299;46.084;18.762;2023-03-01T05:54:27;101494.28;;;4.23;78.38
76460;BME280;65299;46.084;18.762;2023-03-01T05:57:28;101500.28;;;4.11;79.04
76460;BME280;65299;46.084;18.762;2023-03-01T06:00:29;101494.63;;;4.14;78.68
76460;BME280;65299;46.084;18.762;2023-03-01T06:03:30;101491.66;;;3.96;79.22
76460;BME280;65299;46.084;18.762;2023-03-01T06:06:34;101498.84;;;3.87;79.87
76460;BME280;65299;46.084;18.762;2023-03-01T06:09:37;101501.31;;;4.16;78.97
76460;BME280;65299;46.084;18.762;2023-03-01T06:12:39;101497.09;;;4.22;78.99
76460;BME280;65299;46.084;18.762;2023-03-01T06:15:40;101500.16;;;4.26;78.13
76460;BME280;65299;46.084;18.762;2023-03-01T06:18:40;101502.13;;;4.17;79.08
76460;BME280;65299;46.084;18.762;2023-03-01T06:21:41;101504.44;;;4.05;79.33
76460;BME280;65299;46.084;18.762;2023-03-01T06:24:41;101504.56;;;4.18;78.28
76460;BME280;65299;46.084;18.762;2023-03-01T06:27:42;101506.00;;;4.21;78.66
76460;BME280;65299;46.084;18.762;2023-03-01T06:30:42;101504.31;;;4.41;78.31
76460;BME280;65299;46.084;18.762;2023-03-01T06:33:43;101510.84;;;4.52;77.49
76460;BME280;65299;46.084;18.762;2023-03-01T06:36:44;101513.16;;;4.34;77.72
76460;BME280;65299;46.084;18.762;2023-03-01T06:39:46;101513.28;;;4.53;77.66
76460;BME280;65299;46.084;18.762;2023-03-01T06:42:50;101512.41;;;4.46;77.38
76460;BME280;65299;46.084;18.762;2023-03-01T06:45:50;101524.47;;;4.34;77.37
76460;BME280;65299;46.084;18.762;2023-03-01T06:48:51;101516.69;;;4.47;77.03
76460;BME280;65299;46.084;18.762;2023-03-01T06:51:51;101517.06;;;4.16;77.72
76460;BME280;65299;46.084;18.762;2023-03-01T06:54:52;101517.88;;;4.45;77.76
76460;BME280;65299;46.084;18.762;2023-03-01T06:57:59;101519.38;;;4.60;77.71
76460;BME280;65299;46.084;18.762;2023-03-01T07:01:00;101514.78;;;4.35;77.57
76460;BME280;65299;46.084;18.762;2023-03-01T07:04:05;101523.22;;;4.30;78.43
76460;BME280;65299;46.084;18.762;2023-03-01T07:07:11;101513.91;;;4.55;77.51
76460;BME280;65299;46.084;18.762;2023-03-01T07:10:12;101513.97;;;4.68;77.19
76460;BME280;65299;46.084;18.762;2023-03-01T07:13:13;101515.75;;;4.61;77.25
76460;BME280;65299;46.084;18.762;2023-03-01T07:16:14;101509.88;;;4.59;78.07
76460;BME280;65299;46.084;18.762;2023-03-01T07:19:15;101515.03;;;4.46;78.42
76460;BME280;65299;46.084;18.762;2023-03-01T07:22:16;101520.25;;;4.67;77.85
76460;BME280;65299;46.084;18.762;2023-03-01T07:25:17;101510.72;;;4.66;76.94
76460;BME280;65299;46.084;18.762;2023-03-01T07:28:18;101514.22;;;4.73;76.33
76460;BME280;65299;46.084;18.762;2023-03-01T07:31:19;101513.72;;;4.57;77.34
76460;BME280;65299;46.084;18.762;2023-03-01T07:34:20;101514.22;;;4.73;76.84
76460;BME280;65299;46.084;18.762;2023-03-01T07:37:21;101513.66;;;4.50;78.07
76460;BME280;65299;46.084;18.762;2023-03-01T07:40:22;101520.56;;;4.92;76.11
76460;BME280;65299;46.084;18.762;2023-03-01T07:43:23;101514.53;;;4.57;76.41
76460;BME280;65299;46.084;18.762;2023-03-01T07:46:23;101517.38;;;5.03;75.92
76460;BME280;65299;46.084;18.762;2023-03-01T07:49:24;101505.00;;;4.56;77.08
76460;BME280;65299;46.084;18.762;2023-03-01T07:52:26;101500.97;;;5.01;76.01
76460;BME280;65299;46.084;18.762;2023-03-01T07:55:27;101506.34;;;4.80;76.23
76460;BME280;65299;46.084;18.762;2023-03-01T07:58:28;101494.63;;;5.36;74.19
76460;BME280;65299;46.084;18.762;2023-03-01T08:01:32;101495.13;;;5.05;73.68
76460;BME280;65299;46.084;18.762;2023-03-01T08:04:36;101505.25;;;5.02;75.54
76460;BME280;65299;46.084;18.762;2023-03-01T08:07:37;101502.06;;;5.20;75.04
76460;BME280;65299;46.084;18.762;2023-03-01T08:10:38;101498.84;;;5.24;74.88
76460;BME280;65299;46.084;18.762;2023-03-01T08:13:43;101490.09;;;5.11;75.31
76460;BME280;65299;46.084;18.762;2023-03-01T08:16:44;101494.59;;;5.23;74.41
76460;BME280;65299;46.084;18.762;2023-03-01T08:19:48;101497.72;;;4.58;76.45
76460;BME280;65299;46.084;18.762;2023-03-01T08:22:49;101489.75;;;5.33;74.89
76460;BME280;65299;46.084;18.762;2023-03-01T08:25:50;101480.56;;;5.10;75.89
76460;BME280;65299;46.084;18.762;2023-03-01T08:28:51;101480.78;;;5.08;75.76
76460;BME280;65299;46.084;18.762;2023-03-01T08:31:56;101481.25;;;5.38;74.71
76460;BME280;65299;46.084;18.762;2023-03-01T08:34:57;101484.31;;;5.41;74.33
76460;BME280;65299;46.084;18.762;2023-03-01T08:37:58;101477.00;;;5.37;75.15
76460;BME280;65299;46.084;18.762;2023-03-01T08:41:01;101470.47;;;5.07;75.47
76460;BME280;65299;46.084;18.762;2023-03-01T08:44:03;101471.75;;;5.56;74.53
76460;BME280;65299;46.084;18.762;2023-03-01T08:47:04;101468.75;;;5.66;73.97
76460;BME280;65299;46.084;18.762;2023-03-01T08:50:05;101462.03;;;5.50;73.95
76460;BME280;65299;46.084;18.762;2023-03-01T08:53:08;101466.72;;;5.81;74.03
76460;BME280;65299;46.084;18.762;2023-03-01T08:56:10;101469.19;;;5.96;72.87
76460;BME280;65299;46.084;18.762;2023-03-01T08:59:13;101465.50;;;5.64;73.60
76460;BME280;65299;46.084;18.762;2023-03-01T09:02:18;101461.84;;;5.65;73.65
76460;BME280;65299;46.084;18.762;2023-03-01T09:05:19;101452.97;;;5.85;73.05
76460;BME280;65299;46.084;18.762;2023-03-01T09:08:20;101449.13;;;5.88;72.98
76460;BME280;65299;46.084;18.762;2023-03-01T09:11:21;101445.25;;;5.51;74.09
76460;BME280;65299;46.084;18.762;2023-03-01T09:14:24;101457.19;;;6.19;72.47
76460;BME280;65299;46.084;18.762;2023-03-01T09:17:28;101460.41;;;6.41;71.63
76460;BME280;65299;46.084;18.762;2023-03-01T09:20:30;101466.59;;;6.66;71.35
76460;BME280;65299;46.084;18.762;2023-03-01T09:23:33;101468.84;;;6.69;70.40
76460;BME280;65299;46.084;18.762;2023-03-01T09:26:35;101468.78;;;6.82;69.90
76460;BME280;65299;46.084;18.762;2023-03-01T09:29:36;101466.72;;;6.01;71.59
76460;BME280;65299;46.084;18.762;2023-03-01T09:32:43;101467.75;;;6.06;71.90
76460;BME280;65299;46.084;18.762;2023-03-01T09:35:48;101466.66;;;6.59;70.41
76460;BME280;65299;46.084;18.762;2023-03-01T09:38:50;101453.38;;;6.09;71.37
76460;BME280;65299;46.084;18.762;2023-03-01T09:41:59;101463.22;;;6.39;71.29
76460;BME280;65299;46.084;18.762;2023-03-01T09:45:10;101471.53;;;6.49;70.21
76460;BME280;65299;46.084;18.762;2023-03-01T09:48:21;101469.75;;;6.30;70.75
76460;BME280;65299;46.084;18.762;2023-03-01T09:51:31;101467.88;;;6.50;71.59
76460;BME280;65299;46.084;18.762;2023-03-01T09:54:32;101470.81;;;5.90;72.32
76460;BME280;65299;46.084;18.762;2023-03-01T10:00:43;101461.88;;;5.98;72.37
76460;BME280;65299;46.084;18.762;2023-03-01T10:10:44;101437.94;;;6.12;73.37
76460;BME280;65299;46.084;18.762;2023-03-01T10:14:15;101440.75;;;6.17;72.19
76460;BME280;65299;46.084;18.762;2023-03-01T10:17:39;101441.97;;;6.92;70.75
76460;BME280;65299;46.084;18.762;2023-03-01T10:20:46;101432.66;;;6.83;70.71
76460;BME280;65299;46.084;18.762;2023-03-01T10:23:51;101440.06;;;6.61;70.78
76460;BME280;65299;46.084;18.762;2023-03-01T10:26:58;101430.97;;;6.50;70.91
76460;BME280;65299;46.084;18.762;2023-03-01T10:30:05;101437.63;;;6.59;70.94
76460;BME280;65299;46.084;18.762;2023-03-01T10:33:35;101424.38;;;6.72;70.99
76460;BME280;65299;46.084;18.762;2023-03-01T10:36:39;101418.00;;;6.49;71.33
76460;BME280;65299;46.084;18.762;2023-03-01T10:40:10;101416.34;;;6.54;71.40
76460;BME280;65299;46.084;18.762;2023-03-01T10:43:11;101414.34;;;6.94;69.43
76460;BME280;65299;46.084;18.762;2023-03-01T10:46:23;101398.84;;;7.35;69.16
76460;BME280;65299;46.084;18.762;2023-03-01T10:49:24;101400.59;;;7.17;68.69
76460;BME280;65299;46.084;18.762;2023-03-01T10:52:32;101395.59;;;6.64;69.97
76460;BME280;65299;46.084;18.762;2023-03-01T10:55:36;101378.53;;;7.05;69.81
76460;BME280;65299;46.084;18.762;2023-03-01T10:58:39;101372.00;;;7.63;68.54
76460;BME280;65299;46.084;18.762;2023-03-01T11:01:40;101366.50;;;8.07;66.69
76460;BME280;65299;46.084;18.762;2023-03-01T11:04:58;101364.72;;;7.83;66.79
76460;BME280;65299;46.084;18.762;2023-03-01T11:08:01;101349.91;;;7.57;67.91
76460;BME280;65299;46.084;18.762;2023-03-01T11:11:06;101345.47;;;7.94;67.88
76460;BME280;65299;46.084;18.762;2023-03-01T11:14:20;101342.69;;;7.71;67.02
76460;BME280;65299;46.084;18.762;2023-03-01T11:17:39;101343.69;;;7.21;69.60
76460;BME280;65299;46.084;18.762;2023-03-01T11:20:43;101346.81;;;8.03;66.58
76460;BME280;65299;46.084;18.762;2023-03-01T11:23:46;101332.59;;;7.62;68.08
76460;BME280;65299;46.084;18.762;2023-03-01T11:26:52;101338.59;;;8.29;65.39
76460;BME280;65299;46.084;18.762;2023-03-01T11:30:22;101331.38;;;8.00;66.95
76460;BME280;65299;46.084;18.762;2023-03-01T11:33:47;101337.69;;;8.17;65.68
76460;BME280;65299;46.084;18.762;2023-03-01T11:36:59;101315.53;;;8.37;65.28
76460;BME280;65299;46.084;18.762;2023-03-01T11:40:13;101316.13;;;8.39;64.93
76460;BME280;65299;46.084;18.762;2023-03-01T11:49:49;101304.38;;;8.16;65.27
76460;BME280;65299;46.084;18.762;2023-03-01T11:53:27;101294.06;;;8.86;62.86
76460;BME280;65299;46.084;18.762;2023-03-01T11:56:46;101293.56;;;9.18;63.30
76460;BME280;65299;46.084;18.762;2023-03-01T12:03:26;101297.13;;;9.12;62.38
76460;BME280;65299;46.084;18.762;2023-03-01T12:13:13;101283.56;;;8.68;63.36
76460;BME280;65299;46.084;18.762;2023-03-01T12:26:36;101249.63;;;8.76;62.17
76460;BME280;65299;46.084;18.762;2023-03-01T12:43:41;101259.81;;;9.60;60.57
76460;BME280;65299;46.084;18.762;2023-03-01T12:50:18;101251.97;;;9.77;59.82
76460;BME280;65299;46.084;18.762;2023-03-01T12:53:26;101242.22;;;9.19;61.47
76460;BME280;65299;46.084;18.762;2023-03-01T12:56:31;101240.00;;;9.51;60.43
76460;BME280;65299;46.084;18.762;2023-03-01T12:59:40;101235.38;;;9.58;60.29
76460;BME280;65299;46.084;18.762;2023-03-01T13:06:15;101235.19;;;9.25;61.37
76460;BME280;65299;46.084;18.762;2023-03-01T13:15:50;101227.66;;;8.76;62.11
76460;BME280;65299;46.084;18.762;2023-03-01T13:19:22;101223.09;;;9.06;61.27
76460;BME280;65299;46.084;18.762;2023-03-01T13:22:29;101221.06;;;8.25;63.09
76460;BME280;65299;46.084;18.762;2023-03-01T13:25:31;101215.47;;;8.75;62.69
76460;BME280;65299;46.084;18.762;2023-03-01T13:34:52;101208.72;;;9.02;63.09
76460;BME280;65299;46.084;18.762;2023-03-01T13:44:43;101211.44;;;9.18;61.73
76460;BME280;65299;46.084;18.762;2023-03-01T13:47:45;101204.53;;;8.71;64.40
76460;BME280;65299;46.084;18.762;2023-03-01T13:50:55;101205.34;;;8.95;63.84
76460;BME280;65299;46.084;18.762;2023-03-01T13:53:58;101199.59;;;8.98;65.04
76460;BME280;65299;46.084;18.762;2023-03-01T13:57:00;101197.28;;;9.36;62.51
76460;BME280;65299;46.084;18.762;2023-03-01T14:00:02;101203.31;;;9.20;62.87
76460;BME280;65299;46.084;18.762;2023-03-01T14:03:18;101191.56;;;9.16;63.83
76460;BME280;65299;46.084;18.762;2023-03-01T14:06:25;101193.44;;;9.55;61.83
76460;BME280;65299;46.084;18.762;2023-03-01T14:09:28;101182.09;;;8.97;63.32
76460;BME280;65299;46.084;18.762;2023-03-01T14:12:52;101178.69;;;9.59;62.34
76460;BME280;65299;46.084;18.762;2023-03-01T14:19:17;101166.34;;;9.02;64.46
76460;BME280;65299;46.084;18.762;2023-03-01T14:22:32;101173.34;;;9.19;62.88
76460;BME280;65299;46.084;18.762;2023-03-01T14:25:35;101164.44;;;9.37;62.05
76460;BME280;65299;46.084;18.762;2023-03-01T14:28:36;101169.56;;;9.15;63.51
76460;BME280;65299;46.084;18.762;2023-03-01T14:31:39;101174.97;;;9.09;63.08
76460;BME280;65299;46.084;18.762;2023-03-01T14:34:44;101165.88;;;8.93;62.66
76460;BME280;65299;46.084;18.762;2023-03-01T14:37:45;101156.34;;;9.04;62.64
76460;BME280;65299;46.084;18.762;2023-03-01T14:40:49;101158.50;;;8.84;63.10
76460;BME280;65299;46.084;18.762;2023-03-01T14:43:58;101161.38;;;9.05;63.03
76460;BME280;65299;46.084;18.762;2023-03-01T14:47:00;101156.19;;;9.34;61.77
76460;BME280;65299;46.084;18.762;2023-03-01T14:50:26;101161.38;;;8.94;63.41
76460;BME280;65299;46.084;18.762;2023-03-01T14:53:29;101161.47;;;8.64;64.38
76460;BME280;65299;46.084;18.762;2023-03-01T14:56:44;101154.03;;;8.84;63.15
76460;BME280;65299;46.084;18.762;2023-03-01T14:59:45;101145.97;;;8.91;62.82
76460;BME280;65299;46.084;18.762;2023-03-01T15:02:49;101134.06;;;9.16;62.59
76460;BME280;65299;46.084;18.762;2023-03-01T15:05:50;101134.56;;;8.79;62.86
76460;BME280;65299;46.084;18.762;2023-03-01T15:08:53;101139.03;;;8.55;63.22
76460;BME280;65299;46.084;18.762;2023-03-01T15:11:54;101138.91;;;8.39;63.96
76460;BME280;65299;46.084;18.762;2023-03-01T15:14:56;101148.69;;;8.50;63.24
76460;BME280;65299;46.084;18.762;2023-03-01T15:17:59;101139.50;;;8.52;62.95
76460;BME280;65299;46.084;18.762;2023-03-01T15:21:09;101131.22;;;8.72;63.29
76460;BME280;65299;46.084;18.762;2023-03-01T15:24:23;101123.53;;;8.17;64.03
76460;BME280;65299;46.084;18.762;2023-03-01T15:27:25;101121.69;;;8.71;62.92
76460;BME280;65299;46.084;18.762;2023-03-01T15:30:31;101121.66;;;8.48;63.46
76460;BME280;65299;46.084;18.762;2023-03-01T15:33:37;101122.03;;;8.63;63.22
76460;BME280;65299;46.084;18.762;2023-03-01T15:36:43;101116.72;;;8.86;63.38
76460;BME280;65299;46.084;18.762;2023-03-01T15:39:54;101121.56;;;8.89;62.65
76460;BME280;65299;46.084;18.762;2023-03-01T15:42:55;101123.53;;;8.70;63.22
76460;BME280;65299;46.084;18.762;2023-03-01T15:45:56;101120.06;;;9.04;62.89
76460;BME280;65299;46.084;18.762;2023-03-01T15:49:00;101121.78;;;8.53;64.08
76460;BME280;65299;46.084;18.762;2023-03-01T15:52:02;101114.56;;;8.71;63.59
76460;BME280;65299;46.084;18.762;2023-03-01T15:55:26;101107.31;;;8.67;63.58
76460;BME280;65299;46.084;18.762;2023-03-01T15:58:28;101116.03;;;8.56;64.05
76460;BME280;65299;46.084;18.762;2023-03-01T16:01:29;101115.59;;;8.17;65.13
76460;BME280;65299;46.084;18.762;2023-03-01T16:04:29;101113.38;;;8.44;65.18
76460;BME280;65299;46.084;18.762;2023-03-01T16:07:30;101108.81;;;8.21;65.01
76460;BME280;65299;46.084;18.762;2023-03-01T16:10:32;101111.47;;;8.10;65.92
76460;BME280;65299;46.084;18.762;2023-03-01T16:13:33;101109.00;;;8.08;66.31
76460;BME280;65299;46.084;18.762;2023-03-01T16:16:33;101105.66;;;7.90;67.21
76460;BME280;65299;46.084;18.762;2023-03-01T16:19:36;101101.59;;;7.76;68.08
76460;BME280;65299;46.084;18.762;2023-03-01T16:22:37;101106.81;;;7.64;68.26
76460;BME280;65299;46.084;18.762;2023-03-01T16:25:38;101103.34;;;7.82;67.83
76460;BME280;65299;46.084;18.762;2023-03-01T16:28:42;101101.53;;;7.64;68.09
76460;BME280;65299;46.084;18.762;2023-03-01T16:31:42;101117.97;;;7.48;68.57
76460;BME280;65299;46.084;18.762;2023-03-01T16:34:43;101108.59;;;7.34;68.90
76460;BME280;65299;46.084;18.762;2023-03-01T16:37:43;101103.41;;;7.27;69.47
76460;BME280;65299;46.084;18.762;2023-03-01T16:40:49;101096.13;;;7.23;69.19
76460;BME280;65299;46.084;18.762;2023-03-01T16:43:50;101107.25;;;7.61;68.25
76460;BME280;65299;46.084;18.762;2023-03-01T16:46:50;101101.81;;;7.26;69.49
76460;BME280;65299;46.084;18.762;2023-03-01T16:49:52;101105.59;;;7.48;68.97
76460;BME280;65299;46.084;18.762;2023-03-01T16:52:52;101099.81;;;7.40;69.14
76460;BME280;65299;46.084;18.762;2023-03-01T16:55:57;101096.94;;;7.41;69.32
76460;BME280;65299;46.084;18.762;2023-03-01T16:58:57;101100.63;;;7.40;69.16
76460;BME280;65299;46.084;18.762;2023-03-01T17:01:58;101105.75;;;7.35;69.39
76460;BME280;65299;46.084;18.762;2023-03-01T17:04:58;101108.03;;;7.32;69.54
76460;BME280;65299;46.084;18.762;2023-03-01T17:07:59;101106.03;;;7.27;69.60
76460;BME280;65299;46.084;18.762;2023-03-01T17:11:13;101099.53;;;7.30;69.29
76460;BME280;65299;46.084;18.762;2023-03-01T17:14:15;101098.94;;;7.28;69.52
76460;BME280;65299;46.084;18.762;2023-03-01T17:17:16;101115.13;;;7.31;69.73
76460;BME280;65299;46.084;18.762;2023-03-01T17:20:16;101113.25;;;7.20;70.12
76460;BME280;65299;46.084;18.762;2023-03-01T17:23:17;101109.63;;;6.97;70.82
76460;BME280;65299;46.084;18.762;2023-03-01T17:26:17;101117.56;;;7.15;70.45
76460;BME280;65299;46.084;18.762;2023-03-01T17:29:18;101115.50;;;7.17;70.79